sensor_id;sensor_type;location;lat;lon;timestamp;pressure;altitude;pressure_sealevel;temperature;humidity
31082;BME280;17737;52.586;13.284;2022-08-11T00:02:26;101972.16;;;18.23;61.71
31082;BME280;17737;52.586;13.284;2022-08-11T00:05:00;101966.72;;;18.23;61.58
31082;BME280;17737;52.586;13.284;2022-08-11T00:07:31;101963.44;;;18.14;62.15
31082;BME280;17737;52.586;13.284;2022-08-11T00:09:59;101964.47;;;18.29;61.75
31082;BME280;17737;52.586;13.284;2022-08-11T00:12:29;101966.22;;;18.18;62.01
31082;BME280;17737;52.586;13.284;2022-08-11T00:14:59;101960.22;;;18.09;62.45
31082;BME280;17737;52.586;13.284;2022-08-11T00:17:29;101966.09;;;18.11;62.28
31082;BME280;17737;52.586;13.284;2022-08-11T00:20:04;101968.03;;;18.10;62.55
31082;BME280;17737;52.586;13.284;2022-08-11T00:22:41;101961.13;;;17.93;62.92
31082;BME280;17737;52.586;13.284;2022-08-11T00:25:10;101963.50;;;17.95;62.96
31082;BME280;17737;52.586;13.284;2022-08-11T00:27:41;101960.66;;;17.88;63.02
31082;BME280;17737;52.586;13.284;2022-08-11T00:30:10;101957.97;;;17.91;63.07
31082;BME280;17737;52.586;13.284;2022-08-11T00:32:39;101964.31;;;17.76;63.35
31082;BME280;17737;52.586;13.284;2022-08-11T00:35:10;101959.53;;;17.73;63.87
31082;BME280;17737;52.586;13.284;2022-08-11T00:38:00;101963.38;;;17.68;64.02
31082;BME280;17737;52.586;13.284;2022-08-11T00:40:32;101965.72;;;17.70;64.11
31082;BME280;17737;52.586;13.284;2022-08-11T00:43:12;101964.88;;;17.66;63.95
31082;BME280;17737;52.586;13.284;2022-08-11T00:45:52;101961.59;;;17.56;64.20
31082;BME280;17737;52.586;13.284;2022-08-11T00:48:38;101966.59;;;17.54;64.59
31082;BME280;17737;52.586;13.284;2022-08-11T00:51:14;101969.63;;;17.49;64.96
31082;BME280;17737;52.586;13.284;2022-08-11T00:54:39;101961.47;;;17.49;65.01
31082;BME280;17737;52.586;13.284;2022-08-11T00:57:35;101968.75;;;17.45;65.28
31082;BME280;17737;52.586;13.284;2022-08-11T01:00:21;101960.09;;;17.40;65.41
31082;BME280;17737;52.586;13.284;2022-08-11T01:05:50;101960.94;;;17.44;65.28
31082;BME280;17737;52.586;13.284;2022-08-11T01:15:19;101964.75;;;17.20;66.39
31082;BME280;17737;52.586;13.284;2022-08-11T01:27:49;101970.75;;;17.09;66.83
31082;BME280;17737;52.586;13.284;2022-08-11T01:37:02;101974.47;;;17.01;67.24
31082;BME280;17737;52.586;13.284;2022-08-11T01:46:12;101972.09;;;17.00;67.35
31082;BME280;17737;52.586;13.284;2022-08-11T01:48:48;101970.44;;;16.95;67.61
31082;BME280;17737;52.586;13.284;2022-08-11T01:51:26;101974.59;;;16.89;67.72
31082;BME280;17737;52.586;13.284;2022-08-11T01:54:15;101962.47;;;16.86;68.34
31082;BME280;17737;52.586;13.284;2022-08-11T01:56:53;101966.19;;;16.78;68.39
31082;BME280;17737;52.586;13.284;2022-08-11T01:59:35;101963.09;;;16.80;68.54
31082;BME280;17737;52.586;13.284;2022-08-11T02:02:28;101965.31;;;16.74;68.76
31082;BME280;17737;52.586;13.284;2022-08-11T02:05:26;101961.25;;;16.68;69.50
31082;BME280;17737;52.586;13.284;2022-08-11T02:08:08;101958.81;;;16.63;69.67
31082;BME280;17737;52.586;13.284;2022-08-11T02:11:08;101960.31;;;16.60;69.83
31082;BME280;17737;52.586;13.284;2022-08-11T02:14:14;101962.25;;;16.60;69.81
31082;BME280;17737;52.586;13.284;2022-08-11T02:16:55;101954.50;;;16.62;69.92
31082;BME280;17737;52.586;13.284;2022-08-11T02:19:35;101958.47;;;16.49;70.45
31082;BME280;17737;52.586;13.284;2022-08-11T02:22:38;101963.03;;;16.45;70.84
31082;BME280;17737;52.586;13.284;2022-08-11T02:25:35;101948.91;;;16.39;71.36
31082;BME280;17737;52.586;13.284;2022-08-11T02:28:12;101958.47;;;16.33;71.78
31082;BME280;17737;52.586;13.284;2022-08-11T02:30:51;101947.22;;;16.34;71.80
31082;BME280;17737;52.586;13.284;2022-08-11T02:34:06;101946.34;;;16.30;72.10
31082;BME280;17737;52.586;13.284;2022-08-11T02:36:41;101955.59;;;16.26;72.16
31082;BME280;17737;52.586;13.284;2022-08-11T02:39:17;101949.59;;;16.20;72.49
31082;BME280;17737;52.586;13.284;2022-08-11T02:41:51;101956.34;;;16.10;72.86
31082;BME280;17737;52.586;13.284;2022-08-11T02:45:07;101944.84;;;16.17;73.03
31082;BME280;17737;52.586;13.284;2022-08-11T02:47:47;101946.00;;;16.16;72.65
31082;BME280;17737;52.586;13.284;2022-08-11T02:50:40;101947.56;;;16.17;72.78
31082;BME280;17737;52.586;13.284;2022-08-11T02:53:16;101945.91;;;16.12;73.26
31082;BME280;17737;52.586;13.284;2022-08-11T02:55:52;101947.31;;;16.06;73.30
31082;BME280;17737;52.586;13.284;2022-08-11T02:58:29;101946.53;;;16.06;73.37
31082;BME280;17737;52.586;13.284;2022-08-11T03:01:11;101942.84;;;15.98;73.84
31082;BME280;17737;52.586;13.284;2022-08-11T03:03:46;101948.97;;;15.95;74.00
31082;BME280;17737;52.586;13.284;2022-08-11T03:06:23;101950.13;;;15.94;74.07
31082;BME280;17737;52.586;13.284;2022-08-11T03:09:00;101952.56;;;15.99;73.88
31082;BME280;17737;52.586;13.284;2022-08-11T03:11:44;101951.25;;;15.93;73.96
31082;BME280;17737;52.586;13.284;2022-08-11T03:14:41;101956.16;;;15.87;74.22
31082;BME280;17737;52.586;13.284;2022-08-11T03:17:36;101957.31;;;15.86;74.67
31082;BME280;17737;52.586;13.284;2022-08-11T03:20:21;101956.16;;;15.87;74.53
31082;BME280;17737;52.586;13.284;2022-08-11T03:23:05;101952.22;;;15.85;74.87
31082;BME280;17737;52.586;13.284;2022-08-11T03:25:48;101950.44;;;15.77;75.33
31082;BME280;17737;52.586;13.284;2022-08-11T03:28:25;101956.91;;;15.72;75.43
31082;BME280;17737;52.586;13.284;2022-08-11T03:31:00;101958.16;;;15.75;75.66
31082;BME280;17737;52.586;13.284;2022-08-11T03:33:40;101959.41;;;15.77;75.57
31082;BME280;17737;52.586;13.284;2022-08-11T03:40:10;101956.25;;;15.63;76.54
31082;BME280;17737;52.586;13.284;2022-08-11T03:43:10;101952.66;;;15.59;76.53
31082;BME280;17737;52.586;13.284;2022-08-11T03:45:52;101944.06;;;15.57;76.95
31082;BME280;17737;52.586;13.284;2022-08-11T03:48:28;101947.38;;;15.50;77.20
31082;BME280;17737;52.586;13.284;2022-08-11T03:51:12;101956.31;;;15.51;77.23
31082;BME280;17737;52.586;13.284;2022-08-11T03:56:42;101956.66;;;15.49;77.69
31082;BME280;17737;52.586;13.284;2022-08-11T04:00:00;101944.56;;;15.46;77.92
31082;BME280;17737;52.586;13.284;2022-08-11T04:12:13;101950.22;;;16.13;73.78
31082;BME280;17737;52.586;13.284;2022-08-11T04:21:48;101949.34;;;16.41;72.13
31082;BME280;17737;52.586;13.284;2022-08-11T04:24:34;101948.03;;;16.35;72.05
31082;BME280;17737;52.586;13.284;2022-08-11T04:27:46;101954.94;;;16.48;71.46
31082;BME280;17737;52.586;13.284;2022-08-11T04:30:34;101956.25;;;16.70;70.61
31082;BME280;17737;52.586;13.284;2022-08-11T04:33:32;101955.44;;;16.85;69.71
31082;BME280;17737;52.586;13.284;2022-08-11T04:36:33;101959.16;;;16.77;70.02
31082;BME280;17737;52.586;13.284;2022-08-11T04:39:42;101955.28;;;16.78;69.72
31082;BME280;17737;52.586;13.284;2022-08-11T04:45:53;101958.34;;;17.12;68.39
31082;BME280;17737;52.586;13.284;2022-08-11T04:48:45;101953.63;;;17.09;68.36
31082;BME280;17737;52.586;13.284;2022-08-11T04:55:28;101947.44;;;17.70;65.70
31082;BME280;17737;52.586;13.284;2022-08-11T04:59:12;101958.75;;;17.92;64.37
31082;BME280;17737;52.586;13.284;2022-08-11T05:02:20;101961.06;;;18.13;63.26
31082;BME280;17737;52.586;13.284;2022-08-11T05:05:27;101959.06;;;18.10;62.93
31082;BME280;17737;52.586;13.284;2022-08-11T05:08:37;101960.66;;;17.88;63.43
31082;BME280;17737;52.586;13.284;2022-08-11T05:11:28;101965.53;;;17.59;64.26
31082;BME280;17737;52.586;13.284;2022-08-11T05:14:34;101965.59;;;17.63;64.22
31082;BME280;17737;52.586;13.284;2022-08-11T05:17:32;101968.50;;;17.73;63.63
31082;BME280;17737;52.586;13.284;2022-08-11T05:20:39;101969.66;;;17.72;62.91
31082;BME280;17737;52.586;13.284;2022-08-11T05:23:31;101965.09;;;17.76;62.71
31082;BME280;17737;52.586;13.284;2022-08-11T05:26:20;101973.78;;;17.82;62.05
31082;BME280;17737;52.586;13.284;2022-08-11T05:29:25;101975.28;;;17.79;62.24
31082;BME280;17737;52.586;13.284;2022-08-11T05:32:20;101970.22;;;17.78;62.01
31082;BME280;17737;52.586;13.284;2022-08-11T05:35:07;101983.13;;;17.81;61.86
31082;BME280;17737;52.586;13.284;2022-08-11T05:37:58;101981.00;;;17.94;61.48
31082;BME280;17737;52.586;13.284;2022-08-11T05:40:46;101987.19;;;17.91;61.60
31082;BME280;17737;52.586;13.284;2022-08-11T05:43:33;101981.00;;;17.94;61.64
31082;BME280;17737;52.586;13.284;2022-08-11T05:46:47;101985.94;;;18.08;60.97
31082;BME280;17737;52.586;13.284;2022-08-11T05:49:34;101980.34;;;18.23;60.76
31082;BME280;17737;52.586;13.284;2022-08-11T05:52:24;101974.47;;;18.21;60.49
31082;BME280;17737;52.586;13.284;2022-08-11T05:55:14;101984.88;;;18.39;60.22
31082;BME280;17737;52.586;13.284;2022-08-11T05:58:01;101981.31;;;18.58;59.53
31082;BME280;17737;52.586;13.284;2022-08-11T06:00:30;101988.28;;;18.55;59.69
31082;BME280;17737;52.586;13.284;2022-08-11T06:03:08;101982.25;;;18.69;59.29
31082;BME280;17737;52.586;13.284;2022-08-11T06:05:37;101984.44;;;18.83;58.80
31082;BME280;17737;52.586;13.284;2022-08-11T06:08:09;101980.59;;;18.87;58.60
31082;BME280;17737;52.586;13.284;2022-08-11T06:10:39;101986.25;;;19.01;58.19
31082;BME280;17737;52.586;13.284;2022-08-11T06:13:09;101983.78;;;19.19;57.76
31082;BME280;17737;52.586;13.284;2022-08-11T06:15:42;101981.41;;;19.52;57.32
31082;BME280;17737;52.586;13.284;2022-08-11T06:18:13;101977.44;;;19.79;55.65
31082;BME280;17737;52.586;13.284;2022-08-11T06:20:45;101987.78;;;19.97;55.56
31082;BME280;17737;52.586;13.284;2022-08-11T06:23:14;101978.97;;;20.17;55.14
31082;BME280;17737;52.586;13.284;2022-08-11T06:25:45;101981.13;;;20.42;53.78
31082;BME280;17737;52.586;13.284;2022-08-11T06:28:14;101986.19;;;20.40;54.31
31082;BME280;17737;52.586;13.284;2022-08-11T06:30:46;101986.44;;;20.65;53.49
31082;BME280;17737;52.586;13.284;2022-08-11T06:33:17;101996.22;;;20.66;52.65
31082;BME280;17737;52.586;13.284;2022-08-11T06:35:50;101994.31;;;20.77;52.47
31082;BME280;17737;52.586;13.284;2022-08-11T06:38:35;101992.41;;;20.85;51.73
31082;BME280;17737;52.586;13.284;2022-08-11T06:41:19;101992.91;;;21.01;51.82
31082;BME280;17737;52.586;13.284;2022-08-11T06:43:59;101990.19;;;21.12;51.46
31082;BME280;17737;52.586;13.284;2022-08-11T06:46:49;101987.88;;;21.14;51.41
31082;BME280;17737;52.586;13.284;2022-08-11T06:49:21;101984.94;;;21.51;50.48
31082;BME280;17737;52.586;13.284;2022-08-11T06:52:10;101988.47;;;21.63;51.18
31082;BME280;17737;52.586;13.284;2022-08-11T06:55:04;101985.34;;;21.68;50.16
31082;BME280;17737;52.586;13.284;2022-08-11T06:57:53;101982.66;;;21.93;49.53
31082;BME280;17737;52.586;13.284;2022-08-11T07:00:39;101981.09;;;22.13;49.43
31082;BME280;17737;52.586;13.284;2022-08-11T07:03:09;101983.91;;;22.24;49.25
31082;BME280;17737;52.586;13.284;2022-08-11T07:05:43;101984.25;;;22.40;48.60
31082;BME280;17737;52.586;13.284;2022-08-11T07:08:18;101976.44;;;22.35;47.89
31082;BME280;17737;52.586;13.284;2022-08-11T07:11:24;101975.63;;;22.60;46.01
31082;BME280;17737;52.586;13.284;2022-08-11T07:14:28;101980.31;;;22.70;45.68
31082;BME280;17737;52.586;13.284;2022-08-11T07:17:15;101976.38;;;22.60;46.66
31082;BME280;17737;52.586;13.284;2022-08-11T07:19:49;101977.91;;;22.79;46.49
31082;BME280;17737;52.586;13.284;2022-08-11T07:22:42;101973.97;;;22.91;45.79
31082;BME280;17737;52.586;13.284;2022-08-11T07:25:39;101972.00;;;22.91;45.26
31082;BME280;17737;52.586;13.284;2022-08-11T07:28:28;101975.19;;;22.86;45.92
31082;BME280;17737;52.586;13.284;2022-08-11T07:31:15;101973.59;;;22.92;46.14
31082;BME280;17737;52.586;13.284;2022-08-11T07:33:48;101979.03;;;23.07;45.08
31082;BME280;17737;52.586;13.284;2022-08-11T07:36:36;101979.03;;;23.17;44.07
31082;BME280;17737;52.586;13.284;2022-08-11T07:39:09;101976.25;;;23.24;44.09
31082;BME280;17737;52.586;13.284;2022-08-11T07:41:43;101973.50;;;23.21;44.38
31082;BME280;17737;52.586;13.284;2022-08-11T07:44:13;101970.75;;;23.21;44.07
31082;BME280;17737;52.586;13.284;2022-08-11T07:46:44;101975.09;;;23.18;44.17
31082;BME280;17737;52.586;13.284;2022-08-11T07:49:32;101971.44;;;23.39;43.71
31082;BME280;17737;52.586;13.284;2022-08-11T07:52:19;101972.59;;;23.49;44.07
31082;BME280;17737;52.586;13.284;2022-08-11T07:55:01;101980.75;;;23.70;43.90
31082;BME280;17737;52.586;13.284;2022-08-11T07:57:33;101972.91;;;23.58;43.76
31082;BME280;17737;52.586;13.284;2022-08-11T08:00:41;101975.59;;;23.72;43.87
31082;BME280;17737;52.586;13.284;2022-08-11T08:03:35;101968.84;;;23.84;43.31
31082;BME280;17737;52.586;13.284;2022-08-11T08:06:21;101967.84;;;24.12;42.44
31082;BME280;17737;52.586;13.284;2022-08-11T08:09:08;101970.16;;;24.17;42.59
31082;BME280;17737;52.586;13.284;2022-08-11T08:11:56;101972.81;;;24.32;41.78
31082;BME280;17737;52.586;13.284;2022-08-11T08:14:43;101973.97;;;24.31;40.89
31082;BME280;17737;52.586;13.284;2022-08-11T08:17:29;101976.97;;;24.02;41.42
31082;BME280;17737;52.586;13.284;2022-08-11T08:20:38;101973.88;;;23.96;41.59
31082;BME280;17737;52.586;13.284;2022-08-11T08:23:10;101970.75;;;23.94;41.62
31082;BME280;17737;52.586;13.284;2022-08-11T08:25:40;101965.66;;;23.89;41.97
31082;BME280;17737;52.586;13.284;2022-08-11T08:28:11;101961.56;;;24.12;40.74
31082;BME280;17737;52.586;13.284;2022-08-11T08:30:42;101957.50;;;24.24;40.66
31082;BME280;17737;52.586;13.284;2022-08-11T08:33:13;101953.81;;;24.44;40.58
31082;BME280;17737;52.586;13.284;2022-08-11T08:35:45;101955.19;;;24.63;42.12
31082;BME280;17737;52.586;13.284;2022-08-11T08:38:21;101957.09;;;24.70;40.90
31082;BME280;17737;52.586;13.284;2022-08-11T08:40:50;101951.88;;;24.79;39.94
31082;BME280;17737;52.586;13.284;2022-08-11T08:43:23;101955.88;;;24.75;40.37
31082;BME280;17737;52.586;13.284;2022-08-11T08:45:52;101958.06;;;24.87;40.02
31082;BME280;17737;52.586;13.284;2022-08-11T08:48:23;101960.13;;;24.79;39.62
31082;BME280;17737;52.586;13.284;2022-08-11T08:50:55;101956.59;;;24.79;39.68
31082;BME280;17737;52.586;13.284;2022-08-11T08:53:47;101952.69;;;24.76;39.99
31082;BME280;17737;52.586;13.284;2022-08-11T08:56:24;101953.59;;;25.00;39.77
31082;BME280;17737;52.586;13.284;2022-08-11T08:58:55;101955.03;;;25.16;38.84
31082;BME280;17737;52.586;13.284;2022-08-11T09:01:27;101946.81;;;25.08;38.04
31082;BME280;17737;52.586;13.284;2022-08-11T09:03:59;101953.09;;;25.67;37.59
31082;BME280;17737;52.586;13.284;2022-08-11T09:06:36;101947.75;;;25.56;38.53
31082;BME280;17737;52.586;13.284;2022-08-11T09:09:08;101944.75;;;25.74;37.83
31082;BME280;17737;52.586;13.284;2022-08-11T09:11:37;101941.81;;;25.57;37.12
31082;BME280;17737;52.586;13.284;2022-08-11T09:14:21;101942.19;;;25.32;38.39
31082;BME280;17737;52.586;13.284;2022-08-11T09:16:50;101942.75;;;25.74;39.06
31082;BME280;17737;52.586;13.284;2022-08-11T09:19:20;101944.50;;;25.92;37.34
31082;BME280;17737;52.586;13.284;2022-08-11T09:21:49;101940.47;;;25.96;36.99
31082;BME280;17737;52.586;13.284;2022-08-11T09:24:35;101937.03;;;26.12;36.94
31082;BME280;17737;52.586;13.284;2022-08-11T09:27:22;101939.56;;;26.03;37.12
31082;BME280;17737;52.586;13.284;2022-08-11T09:29:52;101939.50;;;26.30;36.51
31082;BME280;17737;52.586;13.284;2022-08-11T09:32:21;101939.91;;;26.28;35.60
31082;BME280;17737;52.586;13.284;2022-08-11T09:34:49;101944.25;;;26.29;35.58
31082;BME280;17737;52.586;13.284;2022-08-11T09:37:20;101940.97;;;26.35;35.81
31082;BME280;17737;52.586;13.284;2022-08-11T09:40:21;101932.94;;;26.20;35.46
31082;BME280;17737;52.586;13.284;2022-08-11T09:42:58;101931.72;;;25.98;35.60
31082;BME280;17737;52.586;13.284;2022-08-11T09:45:48;101926.06;;;26.28;35.39
31082;BME280;17737;52.586;13.284;2022-08-11T09:48:17;101921.84;;;26.44;34.44
31082;BME280;17737;52.586;13.284;2022-08-11T09:50:47;101916.03;;;26.38;35.05
31082;BME280;17737;52.586;13.284;2022-08-11T09:53:17;101918.88;;;26.11;34.43
31082;BME280;17737;52.586;13.284;2022-08-11T09:56:07;101913.31;;;25.91;34.09
31082;BME280;17737;52.586;13.284;2022-08-11T09:58:56;101919.69;;;26.55;33.64
31082;BME280;17737;52.586;13.284;2022-08-11T10:01:27;101914.66;;;26.26;33.74
31082;BME280;17737;52.586;13.284;2022-08-11T10:03:58;101910.63;;;26.54;32.95
31082;BME280;17737;52.586;13.284;2022-08-11T10:06:30;101911.53;;;26.88;32.46
31082;BME280;17737;52.586;13.284;2022-08-11T10:09:20;101899.59;;;26.91;32.25
31082;BME280;17737;52.586;13.284;2022-08-11T10:11:52;101901.44;;;26.97;33.09
31082;BME280;17737;52.586;13.284;2022-08-11T10:14:24;101905.91;;;26.91;33.49
31082;BME280;17737;52.586;13.284;2022-08-11T10:17:13;101898.50;;;26.25;33.17
31082;BME280;17737;52.586;13.284;2022-08-11T10:19:45;101899.38;;;25.98;33.33
31082;BME280;17737;52.586;13.284;2022-08-11T10:22:31;101908.97;;;26.14;32.91
31082;BME280;17737;52.586;13.284;2022-08-11T10:25:18;101888.81;;;26.37;32.06
31082;BME280;17737;52.586;13.284;2022-08-11T10:28:06;101884.50;;;26.75;32.07
31082;BME280;17737;52.586;13.284;2022-08-11T10:30:55;101886.31;;;27.02;31.43
31082;BME280;17737;52.586;13.284;2022-08-11T10:33:44;101881.38;;;26.93;31.79
31082;BME280;17737;52.586;13.284;2022-08-11T10:36:30;101883.91;;;26.44;32.73
31082;BME280;17737;52.586;13.284;2022-08-11T10:39:00;101888.03;;;26.96;32.16
31082;BME280;17737;52.586;13.284;2022-08-11T10:41:31;101875.03;;;27.13;31.66
31082;BME280;17737;52.586;13.284;2022-08-11T10:44:35;101873.75;;;27.50;31.67
31082;BME280;17737;52.586;13.284;2022-08-11T10:47:05;101868.91;;;27.70;30.36
31082;BME280;17737;52.586;13.284;2022-08-11T10:49:53;101874.75;;;27.92;30.70
31082;BME280;17737;52.586;13.284;2022-08-11T10:52:36;101862.25;;;27.52;30.16
31082;BME280;17737;52.586;13.284;2022-08-11T10:55:23;101863.72;;;27.72;30.45
31082;BME280;17737;52.586;13.284;2022-08-11T10:58:10;101872.47;;;27.71;29.97
31082;BME280;17737;52.586;13.284;2022-08-11T11:00:57;101864.75;;;26.93;30.38
31082;BME280;17737;52.586;13.284;2022-08-11T11:03:26;101860.59;;;27.21;30.79
31082;BME280;17737;52.586;13.284;2022-08-11T11:05:59;101856.38;;;27.66;30.25
31082;BME280;17737;52.586;13.284;2022-08-11T11:08:55;101860.06;;;26.90;30.95
31082;BME280;17737;52.586;13.284;2022-08-11T11:11:30;101862.06;;;26.90;30.87
31082;BME280;17737;52.586;13.284;2022-08-11T11:14:21;101856.53;;;26.90;30.35
31082;BME280;17737;52.586;13.284;2022-08-11T11:17:17;101854.19;;;27.24;30.27
31082;BME280;17737;52.586;13.284;2022-08-11T11:20:13;101846.94;;;27.31;30.01
31082;BME280;17737;52.586;13.284;2022-08-11T11:23:06;101842.59;;;27.13;30.48
31082;BME280;17737;52.586;13.284;2022-08-11T11:29:00;101821.16;;;27.34;30.73
31082;BME280;17737;52.586;13.284;2022-08-11T11:31:43;101825.31;;;28.04;29.91
31082;BME280;17737;52.586;13.284;2022-08-11T11:34:21;101830.19;;;28.29;29.87
31082;BME280;17737;52.586;13.284;2022-08-11T11:37:19;101822.50;;;28.49;29.00
31082;BME280;17737;52.586;13.284;2022-08-11T11:39:50;101826.69;;;28.12;28.93
31082;BME280;17737;52.586;13.284;2022-08-11T11:42:19;101831.59;;;28.20;28.92
31082;BME280;17737;52.586;13.284;2022-08-11T11:44:48;101825.56;;;27.80;28.93
31082;BME280;17737;52.586;13.284;2022-08-11T11:47:21;101825.91;;;28.11;28.29
31082;BME280;17737;52.586;13.284;2022-08-11T11:49:49;101831.53;;;27.79;28.92
31082;BME280;17737;52.586;13.284;2022-08-11T11:52:19;101815.25;;;28.10;28.06
31082;BME280;17737;52.586;13.284;2022-08-11T11:54:50;101812.03;;;27.82;28.09
31082;BME280;17737;52.586;13.284;2022-08-11T11:57:21;101813.84;;;27.56;29.18
31082;BME280;17737;52.586;13.284;2022-08-11T12:00:24;101809.38;;;28.08;29.14
31082;BME280;17737;52.586;13.284;2022-08-11T12:03:12;101809.50;;;27.88;28.86
31082;BME280;17737;52.586;13.284;2022-08-11T12:05:41;101801.41;;;28.52;28.35
31082;BME280;17737;52.586;13.284;2022-08-11T12:08:10;101808.66;;;28.75;28.00
31082;BME280;17737;52.586;13.284;2022-08-11T12:10:44;101805.16;;;28.03;28.53
31082;BME280;17737;52.586;13.284;2022-08-11T12:13:14;101796.47;;;28.01;28.60
31082;BME280;17737;52.586;13.284;2022-08-11T12:16:01;101789.44;;;28.67;29.08
31082;BME280;17737;52.586;13.284;2022-08-11T12:18:50;101786.34;;;27.94;28.66
31082;BME280;17737;52.586;13.284;2022-08-11T12:21:21;101787.31;;;27.88;28.48
31082;BME280;17737;52.586;13.284;2022-08-11T12:23:50;101771.22;;;27.99;28.19
31082;BME280;17737;52.586;13.284;2022-08-11T12:26:39;101770.44;;;28.40;27.91
31082;BME280;17737;52.586;13.284;2022-08-11T12:29:43;101768.13;;;28.64;28.11
31082;BME280;17737;52.586;13.284;2022-08-11T12:32:21;101766.16;;;28.65;27.74
31082;BME280;17737;52.586;13.284;2022-08-11T12:34:50;101766.69;;;28.60;27.57
31082;BME280;17737;52.586;13.284;2022-08-11T12:37:19;101765.81;;;29.01;26.61
31082;BME280;17737;52.586;13.284;2022-08-11T12:39:52;101768.94;;;29.03;26.23
31082;BME280;17737;52.586;13.284;2022-08-11T12:43:05;101769.38;;;28.76;26.76
31082;BME280;17737;52.586;13.284;2022-08-11T12:46:05;101756.13;;;28.67;26.78
31082;BME280;17737;52.586;13.284;2022-08-11T12:48:36;101767.25;;;28.80;26.99
31082;BME280;17737;52.586;13.284;2022-08-11T12:51:30;101753.47;;;28.64;27.20
31082;BME280;17737;52.586;13.284;2022-08-11T12:54:40;101758.16;;;28.80;26.52
31082;BME280;17737;52.586;13.284;2022-08-11T12:57:13;101750.38;;;28.87;26.69
31082;BME280;17737;52.586;13.284;2022-08-11T13:00:05;101749.97;;;29.36;26.50
31082;BME280;17737;52.586;13.284;2022-08-11T13:02:51;101743.44;;;29.30;25.83
31082;BME280;17737;52.586;13.284;2022-08-11T13:05:39;101745.38;;;29.55;26.03
31082;BME280;17737;52.586;13.284;2022-08-11T13:08:10;101733.00;;;29.56;27.05
31082;BME280;17737;52.586;13.284;2022-08-11T13:10:40;101731.91;;;29.19;26.69
31082;BME280;17737;52.586;13.284;2022-08-11T13:13:35;101724.16;;;29.01;26.16
31082;BME280;17737;52.586;13.284;2022-08-11T13:16:24;101728.38;;;28.80;26.58
31082;BME280;17737;52.586;13.284;2022-08-11T13:18:54;101724.16;;;29.01;26.47
31082;BME280;17737;52.586;13.284;2022-08-11T13:21:25;101730.69;;;28.43;26.77
31082;BME280;17737;52.586;13.284;2022-08-11T13:23:54;101733.16;;;28.41;26.91
31082;BME280;17737;52.586;13.284;2022-08-11T13:26:28;101722.09;;;28.54;27.20
31082;BME280;17737;52.586;13.284;2022-08-11T13:29:18;101717.03;;;29.13;26.26
31082;BME280;17737;52.586;13.284;2022-08-11T13:31:50;101714.16;;;28.91;26.28
31082;BME280;17737;52.586;13.284;2022-08-11T13:34:20;101713.06;;;28.76;26.51
31082;BME280;17737;52.586;13.284;2022-08-11T13:36:51;101714.59;;;29.15;26.51
31082;BME280;17737;52.586;13.284;2022-08-11T13:39:21;101712.03;;;28.95;25.90
31082;BME280;17737;52.586;13.284;2022-08-11T13:41:52;101713.31;;;28.68;26.64
31082;BME280;17737;52.586;13.284;2022-08-11T13:44:23;101712.16;;;29.04;25.71
31082;BME280;17737;52.586;13.284;2022-08-11T13:46:55;101709.78;;;29.28;25.64
31082;BME280;17737;52.586;13.284;2022-08-11T13:49:26;101700.19;;;28.69;26.48
31082;BME280;17737;52.586;13.284;2022-08-11T13:51:55;101699.31;;;28.72;26.08
31082;BME280;17737;52.586;13.284;2022-08-11T13:54:25;101694.63;;;29.07;26.10
31082;BME280;17737;52.586;13.284;2022-08-11T13:56:58;101687.31;;;29.35;25.54
31082;BME280;17737;52.586;13.284;2022-08-11T13:59:27;101695.38;;;29.43;25.45
31082;BME280;17737;52.586;13.284;2022-08-11T14:01:59;101688.81;;;29.49;27.50
31082;BME280;17737;52.586;13.284;2022-08-11T14:04:52;101693.53;;;29.27;25.59
31082;BME280;17737;52.586;13.284;2022-08-11T14:07:21;101696.94;;;28.96;26.02
31082;BME280;17737;52.586;13.284;2022-08-11T14:09:58;101692.75;;;28.66;26.31
31082;BME280;17737;52.586;13.284;2022-08-11T14:12:28;101689.19;;;29.04;25.73
31082;BME280;17737;52.586;13.284;2022-08-11T14:15:17;101685.28;;;29.01;25.37
31082;BME280;17737;52.586;13.284;2022-08-11T14:17:50;101688.13;;;29.23;25.11
31082;BME280;17737;52.586;13.284;2022-08-11T14:20:21;101679.63;;;29.39;24.94
31082;BME280;17737;52.586;13.284;2022-08-11T14:23:06;101686.94;;;28.99;25.38
31082;BME280;17737;52.586;13.284;2022-08-11T14:25:38;101673.84;;;28.99;25.65
31082;BME280;17737;52.586;13.284;2022-08-11T14:28:29;101678.66;;;28.86;24.76
31082;BME280;17737;52.586;13.284;2022-08-11T14:31:09;101669.88;;;29.35;24.41
31082;BME280;17737;52.586;13.284;2022-08-11T14:33:40;101665.44;;;29.81;24.18
31082;BME280;17737;52.586;13.284;2022-08-11T14:36:28;101668.97;;;30.04;22.92
31082;BME280;17737;52.586;13.284;2022-08-11T14:39:00;101658.75;;;30.32;23.12
31082;BME280;17737;52.586;13.284;2022-08-11T14:41:30;101660.78;;;30.81;22.83
31082;BME280;17737;52.586;13.284;2022-08-11T14:44:39;101651.16;;;30.73;22.44
31082;BME280;17737;52.586;13.284;2022-08-11T14:47:27;101658.34;;;30.43;22.15
31082;BME280;17737;52.586;13.284;2022-08-11T14:49:59;101660.00;;;29.78;22.92
31082;BME280;17737;52.586;13.284;2022-08-11T14:52:38;101659.59;;;29.89;23.49
31082;BME280;17737;52.586;13.284;2022-08-11T14:55:17;101652.16;;;29.85;22.81
31082;BME280;17737;52.586;13.284;2022-08-11T14:58:05;101650.06;;;29.99;22.51
31082;BME280;17737;52.586;13.284;2022-08-11T15:00:36;101651.44;;;29.94;22.22
31082;BME280;17737;52.586;13.284;2022-08-11T15:03:13;101653.53;;;30.12;22.25